Pagina principale
METAR-TAF:

METAR-TAF

Aeroporti :

Aeroporto di Marsa Matruh

Marsa Matruh, Egitto

latitudine: 31-20N, longitudine: 027-13E, altezza: 25 m

Osservazione

Il bollettino è stato emesso 1 ora e 23 minuti fa, alle 05:00 UTC
Vento 5 kt da nord
Temperature 26°C
Umidità 79%
Pressione 1011 hPa
Visibilità 10 km o più
nessuna nube inferiore a 1500 m e nessun cumulonembo

METAR: HEMM 270500Z 01005KT CAVOK 26/22 Q1011 NOSIG

Ora: 08:23 (06:23 UTC)

Previsione

Il bollettino è stato emesso 1 ora e 23 minuti fa, alle 05:00 UTC
Previsione valida dal 27 alle 06 UTC al 28 alle 12 UTC
Vento 7 kt da nord
Visibilità 10 km o più
nessuna nube inferiore a 1500 m e nessun cumulonembo
Evoluzione graduale
dal 27 alle 07 UTC al 27 alle 09 UTC
Vento 11 kt da nord-ovest

TAF: HEMM 270500Z 2706/2812 36007KT CAVOK BECMG 2707/2709 32011KT

Osservazioni e previsioni meteorologiche di più di 4000 aeroporti (messaggi METAR e TAF).

Le stazioni disponibili sono rappresentate dai dischi gialli e rossi sulla carta.

Puntare il mouse per vedere il nome della stazione.

Clicca sopra per visualizzare le osservazioni e previsioni meteorologiche.

Per cambiare la mappa : fare clic sui pulsanti verdi con una croce nera per ingrandire, il pulsante verde con un trattino per diminuire, o sulla freccia verde per le mappe adiacenti.


METAR-TAF: